Strona główna
METAR-TAF:

METAR-TAF

Lotnisko :

Port lotniczy Grodno

Grodno, Białoruś

Szerokość geograficzna: 53-36-06N, Długość geograficzna: 024-03-18E, wysokość: 135 m

Aktualna obserwacja pogody

Raport powstał 9 godziny i 45 minut temu, godzina 15:00 UTC
Wiatr 10 kt od wschód w porywach dochodzący do 16 kt
Temperatura 22°C
Wilgotność 35%
Ciśnienie 1019 hPa
Widzialność 10 km lub więcej
Brak chmur poniżej 1500 m i brak chmur cumulonimbus

METAR: UMMG 171500Z 10005G08MPS CAVOK 22/06 Q1019 NOSIG

czas: 03:45 (00:45 UTC)

Prognoza

Raport powstał 10 godziny i 40 minut temu, godzina 14:05 UTC
Prognoza ważna od 17 godzina 15 UTC do 17 godzina 24 UTC
Wiatr 6 kt od wschodnio-południowy wschód w porywach dochodzący do 16 kt
Widzialność 10 km lub więcej
Rozproszone chmury na wysokości 2000 ft
Przejściowo
od 17 godzina 15 UTC do 17 godzina 18 UTC
Wiatr 8 kt od południowy wschód

TAF: UMMG 171405Z 1715/1724 12003G08MPS 9999 SCT020 TEMPO 1715/1718 13004MPS

Obserwacja i prognoza pogody dla ponad 4000 lotnisk (raport METAR i TAF).

Dostępne stacje oznaczono żółtymi i czerwonymi punktami na mapie.

Najedź kursorem aby zobaczyć nazwę stacji.

Kliknij aby zobaczyć obserwacje i prognozy pogody.

Aby zmienić mapę: kliknij na zielony przycisk z czarnym krzyżykiem, aby powiększyć; na zielony przycisk z myślnikiem, aby pomniejszyć; na zielone strzałki, aby przejść do map sąsiednich.


METAR-TAF: